createdAt,value
2022-12-03T00:00:52.798Z,96.67
2022-12-03T00:03:21.080Z,96.67
2022-12-03T00:05:50.733Z,96.66
2022-12-03T00:08:18.885Z,96.46
2022-12-03T00:10:47.127Z,96.51
2022-12-03T00:13:15.262Z,96.29
2022-12-03T00:15:43.447Z,96.27
2022-12-03T00:18:11.772Z,96.49
2022-12-03T00:20:39.941Z,96.28
2022-12-03T00:23:09.684Z,96.45
2022-12-03T00:25:37.820Z,96.34
2022-12-03T00:28:06.063Z,96.39
2022-12-03T00:30:34.374Z,96.45
2022-12-03T00:33:02.533Z,96.51
2022-12-03T00:35:30.883Z,96.13
2022-12-03T00:37:59.040Z,96.12
2022-12-03T00:40:28.786Z,96.22
2022-12-03T00:42:56.931Z,96.52
2022-12-03T00:45:25.107Z,96.44
2022-12-03T00:47:53.252Z,96.42
2022-12-03T00:50:21.770Z,96.50
2022-12-03T00:52:50.694Z,96.33
2022-12-03T00:55:19.023Z,96.50
2022-12-03T00:57:48.560Z,96.47
2022-12-03T01:00:17.699Z,96.59
2022-12-03T01:02:45.855Z,96.50
2022-12-03T01:05:14.013Z,96.40
2022-12-03T01:07:42.303Z,96.50
2022-12-03T01:10:11.586Z,96.51
2022-12-03T01:12:40.015Z,96.77
2022-12-03T01:15:11.063Z,96.50
2022-12-03T01:17:39.614Z,96.51
2022-12-03T01:20:10.119Z,96.58
2022-12-03T01:22:38.528Z,96.74
2022-12-03T01:25:07.482Z,96.59
2022-12-03T01:27:35.622Z,96.68
2022-12-03T01:30:04.791Z,96.70
2022-12-03T01:32:33.960Z,96.89
2022-12-03T01:35:02.115Z,96.88
2022-12-03T01:37:30.319Z,96.99
2022-12-03T01:39:58.505Z,96.87
2022-12-03T01:42:28.636Z,96.82
2022-12-03T01:44:58.868Z,96.79
2022-12-03T01:47:30.069Z,96.77
2022-12-03T01:50:02.521Z,96.59
2022-12-03T01:52:35.444Z,96.70
2022-12-03T01:55:08.457Z,96.39
2022-12-03T01:57:41.844Z,96.47
2022-12-03T02:00:14.578Z,96.59
2022-12-03T02:02:42.976Z,96.53
2022-12-03T02:05:19.592Z,96.99
2022-12-03T02:07:47.957Z,96.71
2022-12-03T02:10:22.718Z,96.64
2022-12-03T02:12:56.061Z,96.66
2022-12-03T02:15:24.504Z,96.57
2022-12-03T02:17:53.314Z,96.59
2022-12-03T02:20:23.348Z,96.74
2022-12-03T02:23:00.791Z,97.00
2022-12-03T02:25:33.232Z,96.60
2022-12-03T02:28:02.528Z,96.77
2022-12-03T02:30:31.959Z,96.65
2022-12-03T02:33:00.739Z,96.83
2022-12-03T02:35:32.817Z,96.72
2022-12-03T02:38:12.684Z,96.59
2022-12-03T02:40:42.877Z,96.71
2022-12-03T02:43:11.633Z,96.82
2022-12-03T02:45:43.563Z,96.97
2022-12-03T02:48:14.323Z,96.79
2022-12-03T02:50:46.376Z,96.87
2022-12-03T02:53:18.988Z,97.02
2022-12-03T02:55:49.560Z,97.09
2022-12-03T02:58:18.621Z,97.20
2022-12-03T03:00:47.641Z,97.18
2022-12-03T03:03:17.664Z,97.07
2022-12-03T03:05:46.491Z,96.92
2022-12-03T03:08:15.734Z,97.21
2022-12-03T03:10:44.645Z,97.08
2022-12-03T03:13:19.805Z,97.08
2022-12-03T03:15:48.693Z,96.90
2022-12-03T03:18:18.492Z,97.13
2022-12-03T03:20:46.700Z,97.01
2022-12-03T03:23:17.645Z,96.87
2022-12-03T03:25:49.497Z,96.96
2022-12-03T03:28:20.027Z,97.11
2022-12-03T03:30:48.332Z,97.18
2022-12-03T03:33:17.561Z,97.26
2022-12-03T03:35:48.397Z,97.45
2022-12-03T03:38:19.890Z,97.29
2022-12-03T03:40:49.672Z,97.63
2022-12-03T03:43:20.273Z,97.73
2022-12-03T03:45:49.622Z,97.86
2022-12-03T03:48:18.355Z,97.62
2022-12-03T03:50:47.220Z,97.85
2022-12-03T03:53:16.161Z,97.96
2022-12-03T03:55:44.678Z,98.17
2022-12-03T03:58:13.189Z,98.22
2022-12-03T04:00:45.404Z,98.59
2022-12-03T04:03:14.532Z,99.01
2022-12-03T04:05:42.789Z,99.53
2022-12-03T04:08:11.022Z,99.86
2022-12-03T04:10:57.094Z,100.00
2022-12-03T04:13:25.238Z,100.00
2022-12-03T04:15:54.752Z,100.00
2022-12-03T04:18:40.398Z,100.00
2022-12-03T04:21:26.237Z,100.00
2022-12-03T04:24:11.588Z,100.00
2022-12-03T04:26:57.659Z,100.00
2022-12-03T04:29:25.848Z,100.00
2022-12-03T04:32:12.967Z,100.00
2022-12-03T04:34:58.468Z,100.00
2022-12-03T04:37:26.743Z,100.00
2022-12-03T04:39:55.076Z,100.00
2022-12-03T04:42:23.427Z,100.00
2022-12-03T04:44:52.025Z,100.00
2022-12-03T04:47:23.256Z,100.00
2022-12-03T04:49:52.714Z,100.00
2022-12-03T04:52:21.581Z,100.00
2022-12-03T04:54:49.725Z,100.00
2022-12-03T04:57:18.362Z,100.00
2022-12-03T04:59:46.648Z,100.00
2022-12-03T05:02:14.855Z,100.00
2022-12-03T05:04:44.348Z,100.00
2022-12-03T05:07:15.677Z,100.00
2022-12-03T05:09:43.874Z,100.00
2022-12-03T05:12:12.011Z,100.00
2022-12-03T05:14:40.164Z,100.00
2022-12-03T05:17:08.390Z,100.00
2022-12-03T05:19:54.284Z,100.00
2022-12-03T05:22:23.768Z,100.00
2022-12-03T05:24:52.295Z,100.00
2022-12-03T05:27:23.925Z,100.00
2022-12-03T05:29:52.941Z,100.00
2022-12-03T05:32:21.381Z,100.00
2022-12-03T05:34:49.625Z,100.00
2022-12-03T05:37:18.070Z,100.00
2022-12-03T05:39:47.708Z,100.00
2022-12-03T05:42:33.437Z,100.00
2022-12-03T05:45:01.642Z,100.00
2022-12-03T05:47:30.285Z,100.00
2022-12-03T05:49:58.449Z,100.00
2022-12-03T05:52:26.608Z,100.00
2022-12-03T05:54:56.906Z,100.00
2022-12-03T05:57:25.396Z,100.00
2022-12-03T05:59:53.543Z,100.00
2022-12-03T06:02:21.680Z,100.00
2022-12-03T06:04:49.845Z,100.00
2022-12-03T06:07:17.913Z,100.00
2022-12-03T06:09:45.973Z,100.00
2022-12-03T06:12:15.354Z,100.00
2022-12-03T06:14:43.489Z,100.00
2022-12-03T06:17:11.612Z,100.00
2022-12-03T06:19:39.689Z,100.00
2022-12-03T06:22:07.770Z,100.00
2022-12-03T06:24:35.858Z,100.00
2022-12-03T06:27:04.922Z,100.00
2022-12-03T06:29:34.318Z,100.00
2022-12-03T06:32:02.497Z,100.00
2022-12-03T06:34:30.715Z,100.00
2022-12-03T06:36:58.902Z,100.00
2022-12-03T06:39:27.159Z,100.00
2022-12-03T06:41:55.432Z,100.00
2022-12-03T06:44:23.615Z,100.00
2022-12-03T06:46:53.178Z,100.00
2022-12-03T06:49:21.367Z,100.00
2022-12-03T06:51:49.851Z,100.00
2022-12-03T06:54:17.976Z,100.00
2022-12-03T06:56:47.140Z,100.00
2022-12-03T06:59:15.796Z,100.00
2022-12-03T07:01:44.315Z,100.00
2022-12-03T07:04:13.865Z,100.00
2022-12-03T07:06:42.000Z,100.00
2022-12-03T07:09:10.139Z,100.00
2022-12-03T07:11:40.941Z,100.00
2022-12-03T07:14:11.190Z,100.00
2022-12-03T07:16:40.337Z,100.00
2022-12-03T07:19:08.679Z,100.00
2022-12-03T07:21:38.206Z,100.00
2022-12-03T07:24:06.789Z,100.00
2022-12-03T07:26:35.278Z,100.00
2022-12-03T07:29:03.449Z,100.00
2022-12-03T07:31:31.704Z,100.00
2022-12-03T07:33:59.928Z,100.00
2022-12-03T07:36:28.061Z,100.00
2022-12-03T07:38:57.785Z,100.00
2022-12-03T07:41:25.957Z,100.00
2022-12-03T07:43:54.102Z,100.00
2022-12-03T07:46:22.674Z,100.00
2022-12-03T07:48:50.890Z,100.00
2022-12-03T07:51:19.030Z,100.00
2022-12-03T07:53:47.164Z,100.00
2022-12-03T07:56:16.741Z,100.00
2022-12-03T07:58:45.025Z,100.00
2022-12-03T08:01:13.615Z,100.00
2022-12-03T08:03:42.915Z,100.00
2022-12-03T08:06:11.041Z,100.00
2022-12-03T08:08:39.232Z,100.00
2022-12-03T08:11:07.502Z,100.00
2022-12-03T08:13:36.973Z,100.00
2022-12-03T08:16:15.818Z,100.00
2022-12-03T08:18:44.119Z,100.00
2022-12-03T08:21:13.432Z,100.00
2022-12-03T08:23:42.168Z,100.00
2022-12-03T08:26:20.420Z,100.00
2022-12-03T08:28:49.984Z,100.00
2022-12-03T08:31:20.818Z,100.00
2022-12-03T08:33:51.119Z,100.00
2022-12-03T08:36:22.699Z,100.00
2022-12-03T08:38:53.385Z,100.00
2022-12-03T08:41:36.545Z,100.00
2022-12-03T08:44:16.629Z,100.00
2022-12-03T08:46:45.794Z,100.00
2022-12-03T08:49:15.348Z,100.00
2022-12-03T08:51:44.296Z,100.00
2022-12-03T08:54:15.729Z,100.00
2022-12-03T08:56:44.863Z,100.00
2022-12-03T08:59:29.853Z,100.00
2022-12-03T09:01:59.569Z,100.00
2022-12-03T09:04:32.145Z,100.00
2022-12-03T09:07:00.471Z,100.00
2022-12-03T09:09:28.705Z,100.00
2022-12-03T09:11:57.071Z,100.00
2022-12-03T09:14:25.280Z,100.00
2022-12-03T09:16:55.829Z,100.00
2022-12-03T09:19:24.896Z,100.00
2022-12-03T09:21:53.120Z,100.00
2022-12-03T09:24:21.625Z,100.00
2022-12-03T09:26:49.826Z,100.00
2022-12-03T09:29:17.958Z,100.00
2022-12-03T09:31:46.176Z,100.00
2022-12-03T09:34:15.788Z,100.00
2022-12-03T09:36:43.976Z,100.00
2022-12-03T09:39:12.134Z,100.00
2022-12-03T09:41:40.363Z,100.00
2022-12-03T09:44:13.993Z,100.00
2022-12-03T09:46:47.373Z,100.00
2022-12-03T09:49:20.008Z,100.00
2022-12-03T09:51:48.681Z,100.00
2022-12-03T09:54:24.549Z,100.00
2022-12-03T09:56:53.387Z,100.00
2022-12-03T09:59:22.855Z,100.00
2022-12-03T10:01:51.400Z,100.00
2022-12-03T10:04:21.594Z,100.00
2022-12-03T10:06:50.125Z,100.00
2022-12-03T10:09:24.727Z,100.00
2022-12-03T10:11:53.098Z,100.00
2022-12-03T10:14:21.591Z,100.00
2022-12-03T10:16:50.069Z,100.00
2022-12-03T10:19:24.481Z,100.00
2022-12-03T10:21:52.898Z,100.00
2022-12-03T10:24:25.683Z,100.00
2022-12-03T10:26:56.524Z,100.00
2022-12-03T10:29:33.313Z,100.00
2022-12-03T10:32:04.590Z,100.00
2022-12-03T10:34:35.814Z,100.00
2022-12-03T10:37:15.997Z,100.00
2022-12-03T10:39:58.762Z,100.00
2022-12-03T10:42:28.827Z,100.00
2022-12-03T10:45:15.160Z,100.00
2022-12-03T10:47:44.345Z,100.00
2022-12-03T10:50:20.156Z,100.00
2022-12-03T10:52:48.646Z,100.00
2022-12-03T10:55:17.263Z,100.00
2022-12-03T10:57:47.070Z,100.00
2022-12-03T11:00:18.327Z,100.00
2022-12-03T11:02:56.167Z,100.00
2022-12-03T11:05:28.676Z,100.00
2022-12-03T11:07:57.808Z,100.00
2022-12-03T11:10:26.328Z,100.00
2022-12-03T11:13:44.336Z,100.00
2022-12-03T11:16:13.413Z,100.00
2022-12-03T11:19:02.444Z,100.00
2022-12-03T11:21:32.939Z,100.00
2022-12-03T11:24:21.001Z,100.00
2022-12-03T11:27:20.863Z,100.00
2022-12-03T11:29:58.655Z,100.00
2022-12-03T11:33:07.209Z,100.00
2022-12-03T11:36:14.233Z,100.00
2022-12-03T11:38:55.997Z,100.00
2022-12-03T11:41:27.268Z,100.00
2022-12-03T11:44:17.193Z,100.00
2022-12-03T11:46:47.604Z,100.00
2022-12-03T11:49:30.791Z,100.00
2022-12-03T11:51:59.960Z,100.00
2022-12-03T11:54:34.120Z,100.00
2022-12-03T11:57:02.618Z,100.00
2022-12-03T11:59:30.766Z,100.00
2022-12-03T12:01:58.922Z,100.00
2022-12-03T12:04:30.622Z,100.00
2022-12-03T12:06:59.364Z,100.00
2022-12-03T12:09:52.235Z,100.00
2022-12-03T12:12:26.766Z,100.00
2022-12-03T12:14:55.186Z,100.00
2022-12-03T12:17:31.273Z,100.00
2022-12-03T12:20:25.017Z,100.00
2022-12-03T12:22:54.170Z,100.00
2022-12-03T12:25:42.298Z,100.00
2022-12-03T12:28:10.672Z,100.00
2022-12-03T12:30:40.024Z,100.00
2022-12-03T12:33:15.489Z,100.00
2022-12-03T12:35:43.626Z,100.00
2022-12-03T12:38:18.496Z,100.00
2022-12-03T12:40:50.347Z,100.00
2022-12-03T12:43:25.006Z,100.00
2022-12-03T12:45:54.835Z,100.00
2022-12-03T12:48:26.650Z,100.00
2022-12-03T12:51:00.449Z,100.00
2022-12-03T12:53:30.479Z,100.00
2022-12-03T12:56:01.650Z,100.00
2022-12-03T12:58:32.778Z,100.00
2022-12-03T13:01:05.321Z,100.00
2022-12-03T13:03:35.405Z,100.00
2022-12-03T13:06:04.483Z,100.00
2022-12-03T13:08:38.584Z,100.00
2022-12-03T13:11:22.611Z,100.00
2022-12-03T13:13:50.798Z,100.00
2022-12-03T13:16:21.038Z,100.00
2022-12-03T13:18:54.964Z,100.00
2022-12-03T13:21:26.156Z,100.00
2022-12-03T13:23:56.546Z,100.00
2022-12-03T13:26:36.428Z,100.00
2022-12-03T13:29:14.700Z,100.00
2022-12-03T13:31:46.890Z,100.00
2022-12-03T13:34:19.926Z,100.00
2022-12-03T13:36:55.380Z,100.00
2022-12-03T13:39:30.373Z,100.00
2022-12-03T13:42:31.347Z,100.00
2022-12-03T13:44:59.978Z,100.00
2022-12-03T13:47:28.529Z,100.00
2022-12-03T13:49:59.047Z,100.00
2022-12-03T13:52:28.012Z,100.00
2022-12-03T13:54:57.736Z,100.00
2022-12-03T13:57:27.920Z,100.00
2022-12-03T13:59:56.372Z,100.00
2022-12-03T14:02:24.842Z,100.00
2022-12-03T14:04:59.797Z,100.00
2022-12-03T14:07:28.548Z,100.00
2022-12-03T14:09:57.065Z,100.00
2022-12-03T14:12:26.959Z,100.00
2022-12-03T14:14:55.159Z,100.00
2022-12-03T14:17:23.296Z,100.00
2022-12-03T14:19:51.482Z,100.00
2022-12-03T14:22:23.271Z,100.00
2022-12-03T14:24:51.528Z,100.00
2022-12-03T14:27:20.321Z,100.00
2022-12-03T14:29:49.801Z,100.00
2022-12-03T14:32:18.371Z,100.00
2022-12-03T14:34:46.524Z,100.00
2022-12-03T14:37:15.021Z,100.00
2022-12-03T14:39:43.333Z,100.00
2022-12-03T14:42:13.674Z,100.00
2022-12-03T14:44:42.391Z,100.00
2022-12-03T14:47:12.331Z,100.00
2022-12-03T14:49:40.912Z,100.00
2022-12-03T14:52:12.182Z,100.00
2022-12-03T14:54:42.438Z,100.00
2022-12-03T14:57:12.380Z,100.00
2022-12-03T14:59:40.906Z,100.00
2022-12-03T15:02:10.693Z,100.00
2022-12-03T15:04:40.685Z,100.00
2022-12-03T15:07:09.913Z,100.00
2022-12-03T15:09:38.226Z,100.00
2022-12-03T15:12:07.355Z,100.00
2022-12-03T15:14:35.579Z,100.00
2022-12-03T15:17:03.773Z,100.00
2022-12-03T15:19:31.932Z,100.00
2022-12-03T15:22:01.446Z,100.00
2022-12-03T15:24:29.649Z,100.00
2022-12-03T15:26:57.993Z,100.00
2022-12-03T15:29:26.427Z,100.00
2022-12-03T15:31:54.748Z,100.00
2022-12-03T15:34:23.497Z,100.00
2022-12-03T15:36:53.016Z,100.00
2022-12-03T15:39:22.473Z,100.00
2022-12-03T15:41:50.609Z,100.00
2022-12-03T15:44:18.734Z,100.00
2022-12-03T15:46:46.945Z,100.00
2022-12-03T15:49:15.111Z,100.00
2022-12-03T15:51:43.250Z,100.00
2022-12-03T15:54:12.315Z,100.00
2022-12-03T15:56:41.878Z,100.00
2022-12-03T15:59:10.004Z,100.00
2022-12-03T16:01:38.203Z,100.00
2022-12-03T16:04:06.441Z,100.00
2022-12-03T16:06:34.585Z,100.00
2022-12-03T16:09:02.722Z,100.00
2022-12-03T16:11:30.991Z,100.00
2022-12-03T16:14:00.885Z,100.00
2022-12-03T16:16:29.227Z,100.00
2022-12-03T16:18:57.683Z,100.00
2022-12-03T16:21:27.225Z,100.00
2022-12-03T16:23:55.927Z,100.00
2022-12-03T16:26:24.729Z,100.00
2022-12-03T16:28:53.081Z,100.00
2022-12-03T16:31:22.670Z,100.00
2022-12-03T16:33:51.254Z,100.00
2022-12-03T16:36:19.381Z,100.00
2022-12-03T16:38:47.664Z,100.00
2022-12-03T16:41:15.791Z,100.00
2022-12-03T16:43:46.172Z,100.00
2022-12-03T16:46:26.138Z,100.00
2022-12-03T16:48:57.863Z,100.00
2022-12-03T16:51:27.801Z,100.00
2022-12-03T16:53:55.941Z,100.00
2022-12-03T16:56:24.030Z,100.00
2022-12-03T16:58:52.161Z,100.00
2022-12-03T17:01:20.409Z,100.00
2022-12-03T17:03:48.581Z,100.00
2022-12-03T17:06:18.089Z,100.00
2022-12-03T17:08:49.718Z,100.00
2022-12-03T17:11:18.774Z,100.00
2022-12-03T17:13:47.100Z,100.00
2022-12-03T17:16:15.744Z,100.00
2022-12-03T17:18:44.040Z,100.00
2022-12-03T17:21:12.241Z,100.00
2022-12-03T17:23:41.703Z,100.00
2022-12-03T17:26:09.822Z,100.00
2022-12-03T17:28:38.044Z,100.00
2022-12-03T17:31:06.580Z,100.00
2022-12-03T17:33:34.824Z,100.00
2022-12-03T17:36:03.051Z,100.00
2022-12-03T17:38:37.184Z,100.00
2022-12-03T17:41:08.473Z,100.00
2022-12-03T17:43:36.604Z,100.00
2022-12-03T17:46:06.594Z,100.00
2022-12-03T17:48:35.548Z,100.00
2022-12-03T17:51:03.849Z,100.00
2022-12-03T17:53:31.982Z,100.00
2022-12-03T17:56:00.359Z,100.00
2022-12-03T17:58:29.950Z,100.00
2022-12-03T18:01:02.440Z,100.00
2022-12-03T18:03:31.797Z,100.00
2022-12-03T18:06:00.099Z,100.00
2022-12-03T18:08:28.345Z,100.00
2022-12-03T18:10:56.580Z,100.00
2022-12-03T18:13:24.803Z,100.00
2022-12-03T18:15:54.409Z,100.00
2022-12-03T18:18:22.993Z,100.00
2022-12-03T18:20:52.701Z,100.00
2022-12-03T18:23:20.998Z,100.00
2022-12-03T18:25:49.138Z,100.00
2022-12-03T18:28:17.848Z,100.00
2022-12-03T18:30:52.287Z,100.00
2022-12-03T18:33:23.350Z,100.00
2022-12-03T18:35:54.811Z,100.00
2022-12-03T18:38:26.657Z,100.00
2022-12-03T18:40:57.683Z,100.00
2022-12-03T18:43:27.887Z,100.00
2022-12-03T18:45:56.045Z,100.00
2022-12-03T18:48:25.706Z,100.00
2022-12-03T18:50:54.737Z,100.00
2022-12-03T18:53:23.307Z,100.00
2022-12-03T18:55:51.688Z,100.00
2022-12-03T18:58:20.367Z,100.00
2022-12-03T19:00:48.611Z,100.00
2022-12-03T19:03:16.903Z,100.00
2022-12-03T19:05:46.452Z,100.00
2022-12-03T19:08:15.237Z,100.00
2022-12-03T19:10:44.210Z,100.00
2022-12-03T19:13:12.983Z,100.00
2022-12-03T19:15:41.124Z,100.00
2022-12-03T19:18:09.263Z,100.00
2022-12-03T19:20:41.251Z,100.00
2022-12-03T19:23:11.118Z,100.00
2022-12-03T19:25:39.357Z,100.00
2022-12-03T19:28:07.661Z,100.00
2022-12-03T19:30:36.481Z,100.00
2022-12-03T19:33:04.743Z,100.00
2022-12-03T19:35:33.548Z,100.00
2022-12-03T19:38:01.980Z,100.00
2022-12-03T19:40:32.150Z,100.00
2022-12-03T19:43:00.315Z,100.00
2022-12-03T19:45:28.547Z,100.00
2022-12-03T19:47:56.760Z,100.00
2022-12-03T19:50:24.895Z,100.00
2022-12-03T19:52:53.065Z,100.00
2022-12-03T19:55:21.304Z,100.00
2022-12-03T19:57:50.788Z,100.00
2022-12-03T20:00:19.439Z,100.00
2022-12-03T20:02:50.450Z,100.00
2022-12-03T20:05:18.667Z,100.00
2022-12-03T20:07:46.939Z,100.00
2022-12-03T20:10:15.184Z,100.00
2022-12-03T20:12:43.332Z,100.00
2022-12-03T20:15:14.071Z,100.00
2022-12-03T20:17:42.261Z,100.00
2022-12-03T20:20:11.407Z,100.00
2022-12-03T20:22:39.775Z,100.00
2022-12-03T20:25:08.913Z,100.00
2022-12-03T20:27:37.463Z,100.00
2022-12-03T20:30:07.288Z,100.00
2022-12-03T20:32:40.736Z,100.00
2022-12-03T20:35:13.353Z,100.00
2022-12-03T20:37:41.547Z,100.00
2022-12-03T20:40:10.650Z,100.00
2022-12-03T20:42:38.879Z,100.00
2022-12-03T20:45:08.248Z,100.00
2022-12-03T20:47:37.726Z,100.00
2022-12-03T20:50:07.207Z,100.00
2022-12-03T20:52:35.507Z,100.00
2022-12-03T20:55:04.133Z,100.00
2022-12-03T20:57:32.285Z,100.00
2022-12-03T21:00:00.415Z,100.00
2022-12-03T21:02:28.656Z,100.00
2022-12-03T21:04:58.211Z,100.00
2022-12-03T21:07:26.533Z,100.00
2022-12-03T21:09:54.934Z,100.00
2022-12-03T21:12:23.231Z,100.00
2022-12-03T21:14:51.454Z,100.00
2022-12-03T21:17:20.198Z,100.00
2022-12-03T21:19:51.827Z,100.00
2022-12-03T21:22:21.614Z,100.00
2022-12-03T21:24:49.934Z,100.00
2022-12-03T21:27:21.625Z,100.00
2022-12-03T21:29:50.310Z,100.00
2022-12-03T21:32:18.542Z,100.00
2022-12-03T21:34:46.832Z,100.00
2022-12-03T21:37:15.091Z,100.00
2022-12-03T21:39:44.602Z,100.00
2022-12-03T21:42:33.270Z,100.00
2022-12-03T21:45:00.854Z,100.00
2022-12-03T21:47:33.523Z,100.00
2022-12-03T21:50:06.243Z,100.00
2022-12-03T21:52:35.119Z,100.00
2022-12-03T21:55:04.816Z,100.00
2022-12-03T21:57:35.454Z,100.00
2022-12-03T22:00:04.866Z,100.00
2022-12-03T22:02:39.171Z,100.00
2022-12-03T22:05:08.193Z,100.00
2022-12-03T22:07:37.334Z,100.00
2022-12-03T22:10:09.259Z,100.00
2022-12-03T22:12:37.555Z,100.00
2022-12-03T22:15:06.657Z,100.00
2022-12-03T22:17:36.628Z,100.00
2022-12-03T22:20:05.957Z,100.00
2022-12-03T22:22:34.338Z,100.00
2022-12-03T22:25:03.857Z,100.00
2022-12-03T22:27:33.467Z,100.00
2022-12-03T22:30:01.684Z,100.00
2022-12-03T22:32:29.811Z,100.00
2022-12-03T22:34:57.938Z,100.00
2022-12-03T22:37:26.068Z,100.00
2022-12-03T22:39:54.539Z,100.00
2022-12-03T22:42:22.852Z,100.00
2022-12-03T22:44:52.731Z,100.00
2022-12-03T22:47:20.832Z,100.00
2022-12-03T22:49:49.009Z,100.00
2022-12-03T22:52:17.137Z,100.00
2022-12-03T22:54:46.182Z,100.00
2022-12-03T22:57:14.283Z,100.00
2022-12-03T22:59:42.447Z,100.00
2022-12-03T23:02:11.939Z,100.00
2022-12-03T23:04:40.085Z,100.00
2022-12-03T23:07:08.379Z,100.00
2022-12-03T23:09:36.558Z,100.00
2022-12-03T23:12:05.009Z,100.00
2022-12-03T23:14:33.172Z,100.00
2022-12-03T23:17:01.321Z,100.00
2022-12-03T23:19:31.854Z,100.00
2022-12-03T23:22:00.006Z,100.00
2022-12-03T23:24:28.691Z,100.00
2022-12-03T23:26:57.778Z,100.00
2022-12-03T23:29:27.970Z,100.00
2022-12-03T23:31:57.856Z,100.00
2022-12-03T23:34:26.034Z,100.00
2022-12-03T23:36:55.553Z,100.00
2022-12-03T23:39:23.807Z,100.00
2022-12-03T23:41:52.473Z,100.00
2022-12-03T23:44:20.599Z,100.00
2022-12-03T23:46:48.803Z,100.00
2022-12-03T23:49:16.968Z,100.00
2022-12-03T23:51:45.138Z,100.00
2022-12-03T23:54:14.616Z,100.00
2022-12-03T23:56:42.843Z,100.00
2022-12-03T23:59:11.052Z,100.00
